sensor_id;sensor_type;location;lat;lon;timestamp;temperature;humidity
60027;DHT22;45891;53.006;6.512;2023-05-01T00:01:01;9.20;99.90
60027;DHT22;45891;53.006;6.512;2023-05-01T00:03:31;9.10;99.90
60027;DHT22;45891;53.006;6.512;2023-05-01T00:06:02;9.10;99.90
60027;DHT22;45891;53.006;6.512;2023-05-01T00:08:30;9.10;99.90
60027;DHT22;45891;53.006;6.512;2023-05-01T00:10:56;9.10;99.90
60027;DHT22;45891;53.006;6.512;2023-05-01T00:13:26;9.00;99.90
60027;DHT22;45891;53.006;6.512;2023-05-01T00:15:53;9.00;99.90
60027;DHT22;45891;53.006;6.512;2023-05-01T00:18:20;9.00;99.90
60027;DHT22;45891;53.006;6.512;2023-05-01T00:20:46;9.00;99.90
60027;DHT22;45891;53.006;6.512;2023-05-01T00:23:13;9.00;99.90
60027;DHT22;45891;53.006;6.512;2023-05-01T00:25:39;8.90;99.90
60027;DHT22;45891;53.006;6.512;2023-05-01T00:28:05;8.90;99.90
60027;DHT22;45891;53.006;6.512;2023-05-01T00:30:32;8.80;99.90
60027;DHT22;45891;53.006;6.512;2023-05-01T00:32:58;8.90;99.90
60027;DHT22;45891;53.006;6.512;2023-05-01T00:35:25;8.80;99.90
60027;DHT22;45891;53.006;6.512;2023-05-01T00:37:51;8.80;99.90
60027;DHT22;45891;53.006;6.512;2023-05-01T00:40:17;8.80;99.90
60027;DHT22;45891;53.006;6.512;2023-05-01T00:42:44;8.80;99.90
60027;DHT22;45891;53.006;6.512;2023-05-01T00:45:10;8.80;99.90
60027;DHT22;45891;53.006;6.512;2023-05-01T00:47:37;8.70;99.90
60027;DHT22;45891;53.006;6.512;2023-05-01T00:50:04;8.70;99.90
60027;DHT22;45891;53.006;6.512;2023-05-01T00:52:30;8.70;99.90
60027;DHT22;45891;53.006;6.512;2023-05-01T00:54:57;8.70;99.90
60027;DHT22;45891;53.006;6.512;2023-05-01T00:57:23;8.70;99.90
60027;DHT22;45891;53.006;6.512;2023-05-01T00:59:50;8.60;99.90
60027;DHT22;45891;53.006;6.512;2023-05-01T01:02:16;8.60;99.90
60027;DHT22;45891;53.006;6.512;2023-05-01T01:04:44;8.60;99.90
60027;DHT22;45891;53.006;6.512;2023-05-01T01:12:33;8.50;99.90
60027;DHT22;45891;53.006;6.512;2023-05-01T01:17:52;8.40;99.90
60027;DHT22;45891;53.006;6.512;2023-05-01T01:23:32;8.30;99.90
60027;DHT22;45891;53.006;6.512;2023-05-01T01:31:16;8.30;99.90
60027;DHT22;45891;53.006;6.512;2023-05-01T01:34:01;8.20;99.90
60027;DHT22;45891;53.006;6.512;2023-05-01T01:39:44;8.20;99.90
60027;DHT22;45891;53.006;6.512;2023-05-01T01:42:16;8.20;99.90
60027;DHT22;45891;53.006;6.512;2023-05-01T01:44:50;8.20;99.90
60027;DHT22;45891;53.006;6.512;2023-05-01T01:47:18;8.20;99.90
60027;DHT22;45891;53.006;6.512;2023-05-01T01:49:50;8.20;99.90
60027;DHT22;45891;53.006;6.512;2023-05-01T01:52:19;8.10;99.90
60027;DHT22;45891;53.006;6.512;2023-05-01T01:54:50;8.10;99.90
60027;DHT22;45891;53.006;6.512;2023-05-01T01:57:20;8.10;99.90
60027;DHT22;45891;53.006;6.512;2023-05-01T01:59:47;8.10;99.90
60027;DHT22;45891;53.006;6.512;2023-05-01T02:02:17;8.10;99.90
60027;DHT22;45891;53.006;6.512;2023-05-01T02:04:45;8.10;99.90
60027;DHT22;45891;53.006;6.512;2023-05-01T02:07:14;8.00;99.90
60027;DHT22;45891;53.006;6.512;2023-05-01T02:09:41;8.00;99.90
60027;DHT22;45891;53.006;6.512;2023-05-01T02:12:10;8.00;99.90
60027;DHT22;45891;53.006;6.512;2023-05-01T02:14:37;8.00;99.90
60027;DHT22;45891;53.006;6.512;2023-05-01T02:17:04;8.00;99.90
60027;DHT22;45891;53.006;6.512;2023-05-01T02:19:32;7.90;99.90
60027;DHT22;45891;53.006;6.512;2023-05-01T02:21:59;7.90;99.90
60027;DHT22;45891;53.006;6.512;2023-05-01T02:24:27;7.90;99.90
60027;DHT22;45891;53.006;6.512;2023-05-01T02:26:57;7.90;99.90
60027;DHT22;45891;53.006;6.512;2023-05-01T02:29:26;7.90;99.90
60027;DHT22;45891;53.006;6.512;2023-05-01T02:31:52;7.80;99.90
60027;DHT22;45891;53.006;6.512;2023-05-01T02:34:18;7.80;99.90
60027;DHT22;45891;53.006;6.512;2023-05-01T02:36:44;7.70;99.90
60027;DHT22;45891;53.006;6.512;2023-05-01T02:39:11;7.70;99.90
60027;DHT22;45891;53.006;6.512;2023-05-01T02:41:37;7.70;99.90
60027;DHT22;45891;53.006;6.512;2023-05-01T02:44:06;7.60;99.90
60027;DHT22;45891;53.006;6.512;2023-05-01T02:46:35;7.60;99.90
60027;DHT22;45891;53.006;6.512;2023-05-01T02:49:02;7.60;99.90
60027;DHT22;45891;53.006;6.512;2023-05-01T02:51:31;7.50;99.90
60027;DHT22;45891;53.006;6.512;2023-05-01T02:53:58;7.50;99.90
60027;DHT22;45891;53.006;6.512;2023-05-01T02:56:25;7.50;99.90
60027;DHT22;45891;53.006;6.512;2023-05-01T02:58:53;7.50;99.90
60027;DHT22;45891;53.006;6.512;2023-05-01T03:01:19;7.40;99.90
60027;DHT22;45891;53.006;6.512;2023-05-01T03:03:45;7.40;99.90
60027;DHT22;45891;53.006;6.512;2023-05-01T03:06:11;7.30;99.90
60027;DHT22;45891;53.006;6.512;2023-05-01T03:08:40;7.30;99.90
60027;DHT22;45891;53.006;6.512;2023-05-01T03:11:07;7.30;99.90
60027;DHT22;45891;53.006;6.512;2023-05-01T03:13:33;7.30;99.90
60027;DHT22;45891;53.006;6.512;2023-05-01T03:16:00;7.20;99.90
60027;DHT22;45891;53.006;6.512;2023-05-01T03:18:26;7.20;99.90
60027;DHT22;45891;53.006;6.512;2023-05-01T03:20:53;7.10;99.90
60027;DHT22;45891;53.006;6.512;2023-05-01T03:23:22;7.10;99.90
60027;DHT22;45891;53.006;6.512;2023-05-01T03:25:49;7.00;99.90
60027;DHT22;45891;53.006;6.512;2023-05-01T03:28:15;7.00;99.90
60027;DHT22;45891;53.006;6.512;2023-05-01T03:30:41;7.00;99.90
60027;DHT22;45891;53.006;6.512;2023-05-01T03:33:07;6.90;99.90
60027;DHT22;45891;53.006;6.512;2023-05-01T03:35:33;6.90;99.90
60027;DHT22;45891;53.006;6.512;2023-05-01T03:37:59;6.90;99.90
60027;DHT22;45891;53.006;6.512;2023-05-01T03:40:25;6.80;99.90
60027;DHT22;45891;53.006;6.512;2023-05-01T03:42:51;6.80;99.90
60027;DHT22;45891;53.006;6.512;2023-05-01T03:45:17;6.70;99.90
60027;DHT22;45891;53.006;6.512;2023-05-01T03:47:43;6.70;99.90
60027;DHT22;45891;53.006;6.512;2023-05-01T03:50:10;6.60;99.90
60027;DHT22;45891;53.006;6.512;2023-05-01T03:52:36;6.60;99.90
60027;DHT22;45891;53.006;6.512;2023-05-01T03:55:02;6.50;99.90
60027;DHT22;45891;53.006;6.512;2023-05-01T03:57:28;6.50;99.90
60027;DHT22;45891;53.006;6.512;2023-05-01T03:59:54;6.50;99.90
60027;DHT22;45891;53.006;6.512;2023-05-01T04:02:20;6.50;99.90
60027;DHT22;45891;53.006;6.512;2023-05-01T04:04:46;6.50;99.90
60027;DHT22;45891;53.006;6.512;2023-05-01T04:07:12;6.50;99.90
60027;DHT22;45891;53.006;6.512;2023-05-01T04:09:38;6.40;99.90
60027;DHT22;45891;53.006;6.512;2023-05-01T04:12:05;6.40;99.90
60027;DHT22;45891;53.006;6.512;2023-05-01T04:14:31;6.40;99.90
60027;DHT22;45891;53.006;6.512;2023-05-01T04:16:57;6.40;99.90
60027;DHT22;45891;53.006;6.512;2023-05-01T04:19:23;6.40;99.90
60027;DHT22;45891;53.006;6.512;2023-05-01T04:21:49;6.40;99.90
60027;DHT22;45891;53.006;6.512;2023-05-01T04:24:15;6.50;99.90
60027;DHT22;45891;53.006;6.512;2023-05-01T04:26:41;6.50;99.90
60027;DHT22;45891;53.006;6.512;2023-05-01T04:29:08;6.50;99.90
60027;DHT22;45891;53.006;6.512;2023-05-01T04:31:34;6.50;99.90
60027;DHT22;45891;53.006;6.512;2023-05-01T04:34:01;6.60;99.90
60027;DHT22;45891;53.006;6.512;2023-05-01T04:36:27;6.60;99.90
60027;DHT22;45891;53.006;6.512;2023-05-01T04:38:54;6.70;99.90
60027;DHT22;45891;53.006;6.512;2023-05-01T04:41:20;6.70;99.90
60027;DHT22;45891;53.006;6.512;2023-05-01T04:43:46;6.80;99.90
60027;DHT22;45891;53.006;6.512;2023-05-01T04:46:12;6.90;99.90
60027;DHT22;45891;53.006;6.512;2023-05-01T04:48:39;6.90;99.90
60027;DHT22;45891;53.006;6.512;2023-05-01T04:51:05;6.90;99.90
60027;DHT22;45891;53.006;6.512;2023-05-01T04:53:31;7.00;99.90
60027;DHT22;45891;53.006;6.512;2023-05-01T04:55:57;7.00;99.90
60027;DHT22;45891;53.006;6.512;2023-05-01T04:58:23;7.10;99.90
60027;DHT22;45891;53.006;6.512;2023-05-01T05:00:49;7.20;99.90
60027;DHT22;45891;53.006;6.512;2023-05-01T05:03:15;7.30;99.90
60027;DHT22;45891;53.006;6.512;2023-05-01T05:05:43;7.30;99.90
60027;DHT22;45891;53.006;6.512;2023-05-01T05:08:10;7.40;99.90
60027;DHT22;45891;53.006;6.512;2023-05-01T05:10:36;7.50;99.90
60027;DHT22;45891;53.006;6.512;2023-05-01T05:13:02;7.60;99.90
60027;DHT22;45891;53.006;6.512;2023-05-01T05:15:29;7.60;99.90
60027;DHT22;45891;53.006;6.512;2023-05-01T05:17:55;7.70;99.90
60027;DHT22;45891;53.006;6.512;2023-05-01T05:20:21;7.90;99.90
60027;DHT22;45891;53.006;6.512;2023-05-01T05:22:47;8.00;99.90
60027;DHT22;45891;53.006;6.512;2023-05-01T05:25:13;8.10;99.90
60027;DHT22;45891;53.006;6.512;2023-05-01T05:27:41;8.10;99.90
60027;DHT22;45891;53.006;6.512;2023-05-01T05:30:07;8.20;99.90
60027;DHT22;45891;53.006;6.512;2023-05-01T05:32:33;8.20;99.90
60027;DHT22;45891;53.006;6.512;2023-05-01T05:34:59;8.20;99.90
60027;DHT22;45891;53.006;6.512;2023-05-01T05:37:26;8.30;99.90
60027;DHT22;45891;53.006;6.512;2023-05-01T05:39:52;8.40;99.90
60027;DHT22;45891;53.006;6.512;2023-05-01T05:42:18;8.60;99.90
60027;DHT22;45891;53.006;6.512;2023-05-01T05:44:44;8.70;99.90
60027;DHT22;45891;53.006;6.512;2023-05-01T05:47:10;8.90;99.90
60027;DHT22;45891;53.006;6.512;2023-05-01T05:49:36;9.00;99.90
60027;DHT22;45891;53.006;6.512;2023-05-01T05:52:02;9.30;99.90
60027;DHT22;45891;53.006;6.512;2023-05-01T05:54:28;9.50;99.90
60027;DHT22;45891;53.006;6.512;2023-05-01T05:56:54;9.70;99.90
60027;DHT22;45891;53.006;6.512;2023-05-01T05:59:21;9.80;99.90
60027;DHT22;45891;53.006;6.512;2023-05-01T06:01:47;9.90;99.90
60027;DHT22;45891;53.006;6.512;2023-05-01T06:04:13;9.80;99.90
60027;DHT22;45891;53.006;6.512;2023-05-01T06:06:39;9.90;99.90
60027;DHT22;45891;53.006;6.512;2023-05-01T06:09:05;10.10;99.90
60027;DHT22;45891;53.006;6.512;2023-05-01T06:11:33;10.30;99.90
60027;DHT22;45891;53.006;6.512;2023-05-01T06:13:59;10.40;99.90
60027;DHT22;45891;53.006;6.512;2023-05-01T06:16:27;10.50;99.90
60027;DHT22;45891;53.006;6.512;2023-05-01T06:18:53;10.70;99.90
60027;DHT22;45891;53.006;6.512;2023-05-01T06:21:19;11.00;99.90
60027;DHT22;45891;53.006;6.512;2023-05-01T06:23:46;11.20;99.90
60027;DHT22;45891;53.006;6.512;2023-05-01T06:26:12;11.20;99.90
60027;DHT22;45891;53.006;6.512;2023-05-01T06:28:38;11.30;99.90
60027;DHT22;45891;53.006;6.512;2023-05-01T06:31:04;11.40;99.90
60027;DHT22;45891;53.006;6.512;2023-05-01T06:33:30;11.60;99.90
60027;DHT22;45891;53.006;6.512;2023-05-01T06:35:56;11.80;99.90
60027;DHT22;45891;53.006;6.512;2023-05-01T06:38:28;11.90;99.90
60027;DHT22;45891;53.006;6.512;2023-05-01T06:40:54;12.20;99.90
60027;DHT22;45891;53.006;6.512;2023-05-01T06:43:20;12.30;99.90
60027;DHT22;45891;53.006;6.512;2023-05-01T06:45:46;12.50;99.90
60027;DHT22;45891;53.006;6.512;2023-05-01T06:48:12;12.60;99.90
60027;DHT22;45891;53.006;6.512;2023-05-01T06:50:38;12.70;99.90
60027;DHT22;45891;53.006;6.512;2023-05-01T06:53:04;12.80;99.90
60027;DHT22;45891;53.006;6.512;2023-05-01T06:55:30;12.90;99.90
60027;DHT22;45891;53.006;6.512;2023-05-01T06:57:58;13.00;99.90
60027;DHT22;45891;53.006;6.512;2023-05-01T07:00:24;13.10;99.90
60027;DHT22;45891;53.006;6.512;2023-05-01T07:02:50;13.00;99.90
60027;DHT22;45891;53.006;6.512;2023-05-01T07:05:16;13.10;99.90
60027;DHT22;45891;53.006;6.512;2023-05-01T07:07:43;13.20;99.90
60027;DHT22;45891;53.006;6.512;2023-05-01T07:10:09;13.30;99.90
60027;DHT22;45891;53.006;6.512;2023-05-01T07:12:35;13.70;99.90
60027;DHT22;45891;53.006;6.512;2023-05-01T07:15:02;13.90;99.90
60027;DHT22;45891;53.006;6.512;2023-05-01T07:17:28;14.00;99.90
60027;DHT22;45891;53.006;6.512;2023-05-01T07:19:54;14.10;99.90
60027;DHT22;45891;53.006;6.512;2023-05-01T07:22:20;14.30;99.90
60027;DHT22;45891;53.006;6.512;2023-05-01T07:24:46;14.60;99.90
60027;DHT22;45891;53.006;6.512;2023-05-01T07:27:13;14.80;99.90
60027;DHT22;45891;53.006;6.512;2023-05-01T07:29:39;15.00;99.90
60027;DHT22;45891;53.006;6.512;2023-05-01T07:32:05;15.20;99.90
60027;DHT22;45891;53.006;6.512;2023-05-01T07:34:32;15.50;99.90
60027;DHT22;45891;53.006;6.512;2023-05-01T07:36:58;15.80;99.90
60027;DHT22;45891;53.006;6.512;2023-05-01T07:39:25;16.30;99.90
60027;DHT22;45891;53.006;6.512;2023-05-01T07:41:51;16.50;99.30
60027;DHT22;45891;53.006;6.512;2023-05-01T07:44:17;16.50;99.60
60027;DHT22;45891;53.006;6.512;2023-05-01T07:46:43;16.70;98.60
60027;DHT22;45891;53.006;6.512;2023-05-01T07:49:09;16.70;98.50
60027;DHT22;45891;53.006;6.512;2023-05-01T07:51:36;16.80;98.30
60027;DHT22;45891;53.006;6.512;2023-05-01T07:54:02;17.00;97.80
60027;DHT22;45891;53.006;6.512;2023-05-01T07:56:29;16.90;97.40
60027;DHT22;45891;53.006;6.512;2023-05-01T07:58:56;16.80;97.60
60027;DHT22;45891;53.006;6.512;2023-05-01T08:01:22;16.80;97.20
60027;DHT22;45891;53.006;6.512;2023-05-01T08:03:48;17.00;97.20
60027;DHT22;45891;53.006;6.512;2023-05-01T08:06:15;17.20;97.00
60027;DHT22;45891;53.006;6.512;2023-05-01T08:08:41;17.40;96.60
60027;DHT22;45891;53.006;6.512;2023-05-01T08:11:08;17.70;96.60
60027;DHT22;45891;53.006;6.512;2023-05-01T08:13:34;17.90;96.80
60027;DHT22;45891;53.006;6.512;2023-05-01T08:16:01;18.40;96.70
60027;DHT22;45891;53.006;6.512;2023-05-01T08:18:28;18.90;96.50
60027;DHT22;45891;53.006;6.512;2023-05-01T08:20:55;19.40;95.80
60027;DHT22;45891;53.006;6.512;2023-05-01T08:23:21;19.50;95.00
60027;DHT22;45891;53.006;6.512;2023-05-01T08:25:50;19.50;94.80
60027;DHT22;45891;53.006;6.512;2023-05-01T08:28:17;19.60;93.60
60027;DHT22;45891;53.006;6.512;2023-05-01T08:30:45;19.60;93.00
60027;DHT22;45891;53.006;6.512;2023-05-01T08:33:14;19.60;93.10
60027;DHT22;45891;53.006;6.512;2023-05-01T08:35:40;19.70;93.60
60027;DHT22;45891;53.006;6.512;2023-05-01T08:38:06;20.00;92.50
60027;DHT22;45891;53.006;6.512;2023-05-01T08:40:35;20.10;92.70
60027;DHT22;45891;53.006;6.512;2023-05-01T08:43:04;19.70;91.60
60027;DHT22;45891;53.006;6.512;2023-05-01T08:45:33;19.50;91.50
60027;DHT22;45891;53.006;6.512;2023-05-01T08:48:06;19.70;91.50
60027;DHT22;45891;53.006;6.512;2023-05-01T08:50:35;19.90;91.20
60027;DHT22;45891;53.006;6.512;2023-05-01T08:53:04;20.20;90.70
60027;DHT22;45891;53.006;6.512;2023-05-01T08:55:32;20.20;90.30
60027;DHT22;45891;53.006;6.512;2023-05-01T08:58:00;20.20;89.30
60027;DHT22;45891;53.006;6.512;2023-05-01T09:00:27;20.30;90.20
60027;DHT22;45891;53.006;6.512;2023-05-01T09:02:54;21.00;90.70
60027;DHT22;45891;53.006;6.512;2023-05-01T09:05:21;21.60;89.60
60027;DHT22;45891;53.006;6.512;2023-05-01T09:07:47;21.80;86.40
60027;DHT22;45891;53.006;6.512;2023-05-01T09:10:15;22.10;87.00
60027;DHT22;45891;53.006;6.512;2023-05-01T09:12:45;22.60;87.10
60027;DHT22;45891;53.006;6.512;2023-05-01T09:15:12;23.20;86.60
60027;DHT22;45891;53.006;6.512;2023-05-01T09:17:39;23.10;86.70
60027;DHT22;45891;53.006;6.512;2023-05-01T09:20:05;23.20;85.50
60027;DHT22;45891;53.006;6.512;2023-05-01T09:22:33;23.50;85.00
60027;DHT22;45891;53.006;6.512;2023-05-01T09:25:00;24.00;85.20
60027;DHT22;45891;53.006;6.512;2023-05-01T09:27:27;24.50;85.10
60027;DHT22;45891;53.006;6.512;2023-05-01T09:29:53;25.00;82.50
60027;DHT22;45891;53.006;6.512;2023-05-01T09:32:24;25.00;81.50
60027;DHT22;45891;53.006;6.512;2023-05-01T09:34:53;24.80;80.70
60027;DHT22;45891;53.006;6.512;2023-05-01T09:37:28;24.90;77.10
60027;DHT22;45891;53.006;6.512;2023-05-01T09:42:37;25.60;77.70
60027;DHT22;45891;53.006;6.512;2023-05-01T09:45:11;25.40;76.90
60027;DHT22;45891;53.006;6.512;2023-05-01T09:47:38;25.20;78.20
60027;DHT22;45891;53.006;6.512;2023-05-01T09:50:05;25.50;78.10
60027;DHT22;45891;53.006;6.512;2023-05-01T09:52:31;25.90;77.10
60027;DHT22;45891;53.006;6.512;2023-05-01T09:55:16;25.80;76.00
60027;DHT22;45891;53.006;6.512;2023-05-01T09:57:44;25.90;73.10
60027;DHT22;45891;53.006;6.512;2023-05-01T10:00:13;26.20;74.10
60027;DHT22;45891;53.006;6.512;2023-05-01T10:02:44;25.90;73.30
60027;DHT22;45891;53.006;6.512;2023-05-01T10:05:11;26.10;71.10
60027;DHT22;45891;53.006;6.512;2023-05-01T10:07:37;25.30;70.90
60027;DHT22;45891;53.006;6.512;2023-05-01T10:10:20;25.40;71.00
60027;DHT22;45891;53.006;6.512;2023-05-01T10:12:47;25.10;70.40
60027;DHT22;45891;53.006;6.512;2023-05-01T10:15:14;25.60;72.00
60027;DHT22;45891;53.006;6.512;2023-05-01T10:17:42;26.40;72.90
60027;DHT22;45891;53.006;6.512;2023-05-01T10:20:09;27.20;72.40
60027;DHT22;45891;53.006;6.512;2023-05-01T10:22:38;27.40;69.00
60027;DHT22;45891;53.006;6.512;2023-05-01T10:25:08;27.30;70.50
60027;DHT22;45891;53.006;6.512;2023-05-01T10:27:40;27.20;70.90
60027;DHT22;45891;53.006;6.512;2023-05-01T10:30:07;27.20;71.10
60027;DHT22;45891;53.006;6.512;2023-05-01T10:32:34;27.40;70.50
60027;DHT22;45891;53.006;6.512;2023-05-01T10:35:13;27.90;71.40
60027;DHT22;45891;53.006;6.512;2023-05-01T10:37:50;27.60;68.70
60027;DHT22;45891;53.006;6.512;2023-05-01T10:40:43;27.60;67.10
60027;DHT22;45891;53.006;6.512;2023-05-01T10:45:47;26.40;69.30
60027;DHT22;45891;53.006;6.512;2023-05-01T10:51:13;25.70;67.10
60027;DHT22;45891;53.006;6.512;2023-05-01T10:53:41;25.40;65.30
60027;DHT22;45891;53.006;6.512;2023-05-01T11:04:08;23.50;66.20
60027;DHT22;45891;53.006;6.512;2023-05-01T11:09:47;22.40;68.30
60027;DHT22;45891;53.006;6.512;2023-05-01T11:15:11;24.00;70.00
60027;DHT22;45891;53.006;6.512;2023-05-01T11:20:09;23.30;68.20
60027;DHT22;45891;53.006;6.512;2023-05-01T11:22:36;22.50;67.40
60027;DHT22;45891;53.006;6.512;2023-05-01T11:25:16;22.30;70.30
60027;DHT22;45891;53.006;6.512;2023-05-01T11:27:53;22.80;69.40
60027;DHT22;45891;53.006;6.512;2023-05-01T11:30:19;22.70;68.60
60027;DHT22;45891;53.006;6.512;2023-05-01T11:32:47;22.20;67.80
60027;DHT22;45891;53.006;6.512;2023-05-01T11:35:24;21.80;68.40
60027;DHT22;45891;53.006;6.512;2023-05-01T11:37:54;21.50;70.60
60027;DHT22;45891;53.006;6.512;2023-05-01T11:40:23;20.70;70.00
60027;DHT22;45891;53.006;6.512;2023-05-01T11:42:51;20.60;70.90
60027;DHT22;45891;53.006;6.512;2023-05-01T11:45:18;21.10;72.30
60027;DHT22;45891;53.006;6.512;2023-05-01T11:47:44;21.50;70.60
60027;DHT22;45891;53.006;6.512;2023-05-01T11:50:11;21.50;70.40
60027;DHT22;45891;53.006;6.512;2023-05-01T11:52:45;21.80;69.80
60027;DHT22;45891;53.006;6.512;2023-05-01T11:55:13;22.20;70.90
60027;DHT22;45891;53.006;6.512;2023-05-01T11:57:52;22.60;71.20
60027;DHT22;45891;53.006;6.512;2023-05-01T12:03:00;21.80;70.30
60027;DHT22;45891;53.006;6.512;2023-05-01T12:05:29;21.70;69.10
60027;DHT22;45891;53.006;6.512;2023-05-01T12:10:35;21.30;70.60
60027;DHT22;45891;53.006;6.512;2023-05-01T12:13:02;21.40;70.80
60027;DHT22;45891;53.006;6.512;2023-05-01T12:15:29;21.30;71.90
60027;DHT22;45891;53.006;6.512;2023-05-01T12:17:56;21.20;72.00
60027;DHT22;45891;53.006;6.512;2023-05-01T12:20:38;21.20;73.60
60027;DHT22;45891;53.006;6.512;2023-05-01T12:23:05;21.50;73.80
60027;DHT22;45891;53.006;6.512;2023-05-01T12:25:33;21.40;73.70
60027;DHT22;45891;53.006;6.512;2023-05-01T12:28:07;21.40;73.70
60027;DHT22;45891;53.006;6.512;2023-05-01T12:30:35;21.60;74.70
60027;DHT22;45891;53.006;6.512;2023-05-01T12:33:14;21.50;73.80
60027;DHT22;45891;53.006;6.512;2023-05-01T12:35:42;21.30;73.90
60027;DHT22;45891;53.006;6.512;2023-05-01T12:38:16;21.20;74.90
60027;DHT22;45891;53.006;6.512;2023-05-01T12:41:12;21.20;74.10
60027;DHT22;45891;53.006;6.512;2023-05-01T12:43:38;21.20;74.30
60027;DHT22;45891;53.006;6.512;2023-05-01T12:46:04;21.00;74.00
60027;DHT22;45891;53.006;6.512;2023-05-01T12:48:31;21.10;74.10
60027;DHT22;45891;53.006;6.512;2023-05-01T12:51:00;21.10;74.60
60027;DHT22;45891;53.006;6.512;2023-05-01T12:53:27;21.10;74.90
60027;DHT22;45891;53.006;6.512;2023-05-01T12:55:55;21.30;75.10
60027;DHT22;45891;53.006;6.512;2023-05-01T12:58:23;21.40;74.80
60027;DHT22;45891;53.006;6.512;2023-05-01T13:00:54;21.30;74.60
60027;DHT22;45891;53.006;6.512;2023-05-01T13:03:24;21.60;75.40
60027;DHT22;45891;53.006;6.512;2023-05-01T13:05:56;21.70;76.00
60027;DHT22;45891;53.006;6.512;2023-05-01T13:08:29;21.70;75.70
60027;DHT22;45891;53.006;6.512;2023-05-01T13:10:58;22.00;75.50
60027;DHT22;45891;53.006;6.512;2023-05-01T13:13:29;22.10;75.10
60027;DHT22;45891;53.006;6.512;2023-05-01T13:16:07;22.20;75.30
60027;DHT22;45891;53.006;6.512;2023-05-01T13:18:47;22.30;75.00
60027;DHT22;45891;53.006;6.512;2023-05-01T13:21:15;22.70;75.90
60027;DHT22;45891;53.006;6.512;2023-05-01T13:23:54;23.00;75.50
60027;DHT22;45891;53.006;6.512;2023-05-01T13:26:25;22.50;75.50
60027;DHT22;45891;53.006;6.512;2023-05-01T13:28:52;22.40;75.90
60027;DHT22;45891;53.006;6.512;2023-05-01T13:31:18;22.30;76.10
60027;DHT22;45891;53.006;6.512;2023-05-01T13:33:50;22.40;74.80
60027;DHT22;45891;53.006;6.512;2023-05-01T13:36:16;22.20;74.80
60027;DHT22;45891;53.006;6.512;2023-05-01T13:38:45;22.00;75.10
60027;DHT22;45891;53.006;6.512;2023-05-01T13:41:14;22.20;75.60
60027;DHT22;45891;53.006;6.512;2023-05-01T13:43:41;21.50;74.00
60027;DHT22;45891;53.006;6.512;2023-05-01T13:46:10;19.90;76.10
60027;DHT22;45891;53.006;6.512;2023-05-01T13:48:38;19.60;76.70
60027;DHT22;45891;53.006;6.512;2023-05-01T13:51:09;19.30;77.40
60027;DHT22;45891;53.006;6.512;2023-05-01T13:53:36;19.50;78.10
60027;DHT22;45891;53.006;6.512;2023-05-01T13:56:08;19.50;78.10
60027;DHT22;45891;53.006;6.512;2023-05-01T13:58:34;19.20;78.90
60027;DHT22;45891;53.006;6.512;2023-05-01T14:01:01;19.30;79.50
60027;DHT22;45891;53.006;6.512;2023-05-01T14:03:34;19.40;79.30
60027;DHT22;45891;53.006;6.512;2023-05-01T14:06:03;19.60;80.10
60027;DHT22;45891;53.006;6.512;2023-05-01T14:08:29;19.30;81.60
60027;DHT22;45891;53.006;6.512;2023-05-01T14:10:57;19.50;83.30
60027;DHT22;45891;53.006;6.512;2023-05-01T14:13:25;19.40;83.20
60027;DHT22;45891;53.006;6.512;2023-05-01T14:15:52;19.10;83.70
60027;DHT22;45891;53.006;6.512;2023-05-01T14:18:18;19.10;84.10
60027;DHT22;45891;53.006;6.512;2023-05-01T14:20:45;18.80;84.70
60027;DHT22;45891;53.006;6.512;2023-05-01T14:23:15;18.50;86.20
60027;DHT22;45891;53.006;6.512;2023-05-01T14:25:44;18.60;86.70
60027;DHT22;45891;53.006;6.512;2023-05-01T14:28:10;18.70;86.20
60027;DHT22;45891;53.006;6.512;2023-05-01T14:30:38;18.90;86.30
60027;DHT22;45891;53.006;6.512;2023-05-01T14:33:11;18.90;86.60
60027;DHT22;45891;53.006;6.512;2023-05-01T14:35:56;18.40;87.00
60027;DHT22;45891;53.006;6.512;2023-05-01T14:38:24;18.00;87.70
60027;DHT22;45891;53.006;6.512;2023-05-01T14:40:51;17.80;88.50
60027;DHT22;45891;53.006;6.512;2023-05-01T14:43:19;17.80;89.00
60027;DHT22;45891;53.006;6.512;2023-05-01T14:45:46;18.20;88.30
60027;DHT22;45891;53.006;6.512;2023-05-01T14:48:38;18.40;88.50
60027;DHT22;45891;53.006;6.512;2023-05-01T14:51:16;18.50;89.00
60027;DHT22;45891;53.006;6.512;2023-05-01T14:53:43;18.40;89.20
60027;DHT22;45891;53.006;6.512;2023-05-01T14:56:11;18.40;88.50
60027;DHT22;45891;53.006;6.512;2023-05-01T14:58:37;18.90;88.30
60027;DHT22;45891;53.006;6.512;2023-05-01T15:01:03;20.00;87.20
60027;DHT22;45891;53.006;6.512;2023-05-01T15:03:29;20.80;86.30
60027;DHT22;45891;53.006;6.512;2023-05-01T15:05:56;21.20;84.70
60027;DHT22;45891;53.006;6.512;2023-05-01T15:08:22;20.80;85.10
60027;DHT22;45891;53.006;6.512;2023-05-01T15:10:50;21.00;84.30
60027;DHT22;45891;53.006;6.512;2023-05-01T15:13:17;21.00;84.20
60027;DHT22;45891;53.006;6.512;2023-05-01T15:15:44;21.40;84.00
60027;DHT22;45891;53.006;6.512;2023-05-01T15:18:10;21.50;83.90
60027;DHT22;45891;53.006;6.512;2023-05-01T15:20:36;22.00;83.80
60027;DHT22;45891;53.006;6.512;2023-05-01T15:23:02;22.50;82.70
60027;DHT22;45891;53.006;6.512;2023-05-01T15:25:29;22.30;82.20
60027;DHT22;45891;53.006;6.512;2023-05-01T15:27:55;22.40;81.80
60027;DHT22;45891;53.006;6.512;2023-05-01T15:30:21;21.50;81.30
60027;DHT22;45891;53.006;6.512;2023-05-01T15:32:48;22.20;81.40
60027;DHT22;45891;53.006;6.512;2023-05-01T15:35:14;22.40;81.10
60027;DHT22;45891;53.006;6.512;2023-05-01T15:37:41;22.50;81.60
60027;DHT22;45891;53.006;6.512;2023-05-01T15:40:08;22.60;81.50
60027;DHT22;45891;53.006;6.512;2023-05-01T15:42:34;21.60;81.50
60027;DHT22;45891;53.006;6.512;2023-05-01T15:45:01;21.10;84.00
60027;DHT22;45891;53.006;6.512;2023-05-01T15:47:28;19.90;84.30
60027;DHT22;45891;53.006;6.512;2023-05-01T15:49:54;19.10;85.50
60027;DHT22;45891;53.006;6.512;2023-05-01T15:52:20;18.60;86.60
60027;DHT22;45891;53.006;6.512;2023-05-01T15:54:46;18.60;87.60
60027;DHT22;45891;53.006;6.512;2023-05-01T15:57:13;18.50;88.00
60027;DHT22;45891;53.006;6.512;2023-05-01T15:59:39;18.50;88.80
60027;DHT22;45891;53.006;6.512;2023-05-01T16:02:06;18.90;88.00
60027;DHT22;45891;53.006;6.512;2023-05-01T16:04:34;19.00;87.50
60027;DHT22;45891;53.006;6.512;2023-05-01T16:07:03;18.60;88.00
60027;DHT22;45891;53.006;6.512;2023-05-01T16:09:31;18.40;87.90
60027;DHT22;45891;53.006;6.512;2023-05-01T16:11:58;17.90;88.60
60027;DHT22;45891;53.006;6.512;2023-05-01T16:14:24;17.70;89.90
60027;DHT22;45891;53.006;6.512;2023-05-01T16:16:51;18.00;89.70
60027;DHT22;45891;53.006;6.512;2023-05-01T16:19:17;18.30;89.30
60027;DHT22;45891;53.006;6.512;2023-05-01T16:21:44;18.80;88.90
60027;DHT22;45891;53.006;6.512;2023-05-01T16:24:10;19.00;88.20
60027;DHT22;45891;53.006;6.512;2023-05-01T16:26:36;19.10;87.80
60027;DHT22;45891;53.006;6.512;2023-05-01T16:29:05;19.10;87.80
60027;DHT22;45891;53.006;6.512;2023-05-01T16:31:42;18.80;88.70